Time;durP1;ratioP1;P1;durP2;ratioP2;P2;SDS_P1;SDS_P2;PMS_P1;PMS_P2;Temp;Humidity;BMP_temperature;BMP_pressure;BME280_temperature;BME280_humidity;BME280_pressure;Samples;Min_cycle;Max_cycle;Signal;HPM_P1;HPM_P2
2022/12/20 00:00:26;;;;;;;3.13;1.87;;;13.40;99.90;;;;;;4995292;28;20104;-80
2022/12/20 00:02:52;;;;;;;2.25;1.50;;;13.40;99.90;;;;;;4987076;28;20211;-80
2022/12/20 00:05:18;;;;;;;3.43;1.80;;;13.50;99.90;;;;;;4981623;28;20133;-82
2022/12/20 00:07:44;;;;;;;2.67;1.67;;;13.60;99.90;;;;;;4935839;28;20022;-81
2022/12/20 00:10:10;;;;;;;2.47;1.40;;;13.60;99.90;;;;;;5004887;28;20128;-80
2022/12/20 00:12:35;;;;;;;2.97;1.70;;;13.60;99.90;;;;;;4974729;28;20132;-80
2022/12/20 00:15:01;;;;;;;3.13;1.50;;;13.70;99.90;;;;;;4991174;28;20156;-81
2022/12/20 00:17:27;;;;;;;2.00;1.40;;;13.70;99.90;;;;;;4990616;28;20565;-81
2022/12/20 00:19:52;;;;;;;2.50;1.67;;;13.70;99.90;;;;;;4981467;28;20349;-80
2022/12/20 00:22:18;;;;;;;1.45;1.23;;;13.70;99.90;;;;;;4983476;28;20109;-81
2022/12/20 00:24:44;;;;;;;2.27;1.37;;;13.60;99.90;;;;;;4956732;28;20230;-83
2022/12/20 00:27:09;;;;;;;1.77;1.20;;;13.60;99.90;;;;;;5006110;28;20025;-81
2022/12/20 00:29:35;;;;;;;2.77;1.50;;;13.50;99.90;;;;;;4971151;28;20639;-82
2022/12/20 00:32:01;;;;;;;1.77;1.45;;;13.50;99.90;;;;;;4971789;28;20273;-80
2022/12/20 00:34:26;;;;;;;2.47;1.47;;;13.40;99.90;;;;;;4963509;28;20116;-83
2022/12/20 00:36:52;;;;;;;2.90;1.43;;;13.30;99.90;;;;;;4976263;28;20313;-82
2022/12/20 00:39:18;;;;;;;2.20;1.30;;;13.20;99.90;;;;;;4958492;28;20056;-82
2022/12/20 00:41:43;;;;;;;1.70;1.30;;;13.10;99.90;;;;;;4985874;28;20438;-83
2022/12/20 00:44:09;;;;;;;2.30;1.40;;;13.10;99.90;;;;;;4979597;28;20798;-82
2022/12/20 00:46:35;;;;;;;3.38;1.50;;;13.10;99.90;;;;;;4965278;28;20108;-83
2022/12/20 00:49:01;;;;;;;2.55;1.48;;;13.00;99.90;;;;;;4973191;28;20138;-82
2022/12/20 00:51:28;;;;;;;2.23;1.40;;;12.90;99.90;;;;;;4961065;28;20060;-83
2022/12/20 00:53:55;;;;;;;2.35;1.45;;;12.90;99.90;;;;;;4957396;28;20406;-83
2022/12/20 00:56:21;;;;;;;1.50;1.30;;;12.80;99.90;;;;;;4967692;28;20028;-82
2022/12/20 00:58:46;;;;;;;3.20;1.60;;;12.80;99.90;;;;;;4989467;28;20022;-85
2022/12/20 01:01:20;;;;;;;1.98;1.30;;;12.70;99.90;;;;;;4975491;28;20127;-83
2022/12/20 01:03:46;;;;;;;2.20;1.50;;;12.70;99.90;;;;;;4986301;28;20724;-82
2022/12/20 01:06:13;;;;;;;2.42;1.58;;;12.70;99.90;;;;;;4958717;28;20103;-82
2022/12/20 01:08:38;;;;;;;2.22;1.50;;;12.60;99.90;;;;;;4952788;28;21008;-83
2022/12/20 01:11:14;;;;;;;3.87;1.63;;;12.70;99.90;;;;;;5006463;28;20037;-83
2022/12/20 01:13:43;;;;;;;2.83;1.40;;;12.60;99.90;;;;;;4980136;28;20053;-85
2022/12/20 01:16:17;;;;;;;2.22;1.50;;;12.70;99.90;;;;;;4961904;28;20598;-82
2022/12/20 01:18:43;;;;;;;2.30;1.38;;;12.70;99.90;;;;;;4969715;28;20112;-81
2022/12/20 01:21:12;;;;;;;1.92;1.27;;;12.70;99.90;;;;;;4972976;28;20330;-84
2022/12/20 01:23:39;;;;;;;3.17;1.60;;;12.80;99.90;;;;;;4996673;28;20021;-82
2022/12/20 01:26:10;;;;;;;2.08;1.52;;;12.80;99.90;;;;;;4963514;28;20112;-84
2022/12/20 01:28:37;;;;;;;2.53;1.50;;;12.80;99.90;;;;;;4994390;28;20049;-81
2022/12/20 01:31:08;;;;;;;2.17;1.50;;;12.80;99.90;;;;;;4960199;28;20033;-83
2022/12/20 01:33:35;;;;;;;2.00;1.50;;;12.90;99.90;;;;;;4990377;28;20033;-82
2022/12/20 01:36:06;;;;;;;2.20;1.50;;;12.90;99.90;;;;;;4971777;28;20108;-83
2022/12/20 01:38:33;;;;;;;1.73;1.23;;;12.90;99.90;;;;;;4977480;28;20113;-81
2022/12/20 01:40:59;;;;;;;2.83;1.50;;;12.90;99.90;;;;;;4951250;28;20080;-83
2022/12/20 01:44:03;;;;;;;2.40;1.67;;;13.00;99.90;;;;;;4981367;28;20034;-82
2022/12/20 01:46:31;;;;;;;3.00;1.38;;;13.00;99.90;;;;;;4982507;28;20091;-81
2022/12/20 01:49:11;;;;;;;1.93;1.50;;;13.00;99.90;;;;;;4988773;28;20156;-82
2022/12/20 01:51:43;;;;;;;2.03;1.40;;;13.10;99.90;;;;;;4960737;28;20057;-81
2022/12/20 01:54:30;;;;;;;2.17;1.30;;;13.10;99.90;;;;;;4973188;28;20163;-81
2022/12/20 01:56:59;;;;;;;2.33;1.30;;;13.10;99.90;;;;;;4950731;28;20835;-82
2022/12/20 01:59:27;;;;;;;3.28;1.60;;;13.10;99.90;;;;;;4968866;28;20106;-82
2022/12/20 02:01:58;;;;;;;2.13;1.50;;;13.10;99.90;;;;;;4978434;28;20039;-83
2022/12/20 02:04:24;;;;;;;2.13;1.33;;;13.10;99.90;;;;;;4973415;28;20069;-82
2022/12/20 02:06:50;;;;;;;3.00;1.70;;;13.20;99.90;;;;;;4974634;28;20033;-83
2022/12/20 02:09:16;;;;;;;3.08;1.67;;;13.20;99.90;;;;;;4959376;28;20330;-84
2022/12/20 02:11:58;;;;;;;3.17;1.60;;;13.20;99.90;;;;;;4961217;28;20129;-80
2022/12/20 02:14:35;;;;;;;2.35;1.45;;;13.20;99.90;;;;;;4983184;28;20108;-82
2022/12/20 02:17:04;;;;;;;2.22;1.55;;;13.20;99.90;;;;;;4992118;28;20731;-82
2022/12/20 02:20:07;;;;;;;2.15;1.55;;;13.30;99.90;;;;;;4980018;28;20156;-81
2022/12/20 02:23:02;;;;;;;2.90;1.37;;;13.30;99.90;;;;;;4975033;28;20120;-82
2022/12/20 02:25:59;;;;;;;2.90;1.85;;;13.30;99.90;;;;;;4968161;28;20426;-82
2022/12/20 02:28:47;;;;;;;4.30;1.80;;;13.30;99.90;;;;;;4984064;28;20022;-81
2022/12/20 02:31:17;;;;;;;2.90;1.75;;;13.30;99.90;;;;;;4987086;28;20460;-84
2022/12/20 02:33:47;;;;;;;2.42;1.52;;;13.30;99.90;;;;;;4990246;28;20071;-82
2022/12/20 02:36:17;;;;;;;2.13;1.40;;;13.40;99.90;;;;;;4975017;28;20237;-82
2022/12/20 02:38:43;;;;;;;1.73;1.40;;;13.40;99.90;;;;;;4977065;28;20021;-82
2022/12/20 02:41:19;;;;;;;2.05;1.30;;;13.40;99.90;;;;;;4960094;28;21102;-81
2022/12/20 02:46:44;;;;;;;2.40;1.60;;;13.40;99.90;;;;;;5000289;28;20037;-82
2022/12/20 02:49:15;;;;;;;2.50;1.57;;;13.50;99.90;;;;;;4976705;28;20021;-83
2022/12/20 02:51:43;;;;;;;2.90;1.50;;;13.50;99.90;;;;;;4986396;28;20203;-81
2022/12/20 02:54:09;;;;;;;1.70;1.40;;;13.50;99.90;;;;;;4995976;28;20039;-82
2022/12/20 02:56:44;;;;;;;2.40;1.58;;;13.50;99.90;;;;;;4962248;28;20493;-81
2022/12/20 02:59:22;;;;;;;2.10;1.30;;;13.50;99.90;;;;;;4987609;28;20029;-81
2022/12/20 03:01:51;;;;;;;3.03;1.60;;;13.50;99.90;;;;;;4986627;28;20025;-81
2022/12/20 03:04:21;;;;;;;3.13;1.58;;;13.50;99.90;;;;;;4974895;28;20042;-82
2022/12/20 03:07:00;;;;;;;2.17;1.40;;;13.50;99.90;;;;;;4976557;28;20152;-81
2022/12/20 03:09:26;;;;;;;2.40;1.35;;;13.60;99.90;;;;;;4994677;28;20029;-81
2022/12/20 03:11:53;;;;;;;1.92;1.40;;;13.60;99.90;;;;;;4952771;28;20472;-82
2022/12/20 03:14:18;;;;;;;2.37;1.50;;;13.60;99.90;;;;;;4976814;28;20025;-83
2022/12/20 03:16:44;;;;;;;2.08;1.42;;;13.60;99.90;;;;;;4986503;28;20021;-82
2022/12/20 03:19:10;;;;;;;2.40;1.40;;;13.60;99.90;;;;;;4984882;28;20041;-82
2022/12/20 03:21:36;;;;;;;3.07;1.57;;;13.70;99.90;;;;;;4981429;28;20383;-81
2022/12/20 03:24:02;;;;;;;2.38;1.63;;;13.70;99.90;;;;;;4980798;28;22903;-83
2022/12/20 03:26:27;;;;;;;3.07;1.70;;;13.60;99.90;;;;;;4998351;28;22264;-81
2022/12/20 03:28:53;;;;;;;3.38;1.58;;;13.70;99.90;;;;;;4957185;28;20052;-81
2022/12/20 03:31:19;;;;;;;2.03;1.40;;;13.70;99.90;;;;;;4976736;28;20525;-83
2022/12/20 03:33:45;;;;;;;2.88;1.55;;;13.70;99.90;;;;;;4973633;28;20026;-83
2022/12/20 03:36:11;;;;;;;3.00;1.60;;;13.70;99.90;;;;;;4991569;28;20018;-81
2022/12/20 03:38:36;;;;;;;3.33;1.70;;;13.70;99.90;;;;;;4977073;28;20029;-82
2022/12/20 03:41:02;;;;;;;3.20;1.65;;;13.70;99.90;;;;;;4995995;28;20204;-80
2022/12/20 03:43:28;;;;;;;2.83;1.80;;;13.80;99.90;;;;;;4969032;28;20072;-81
2022/12/20 03:45:54;;;;;;;3.40;1.60;;;13.80;99.90;;;;;;4969055;28;20362;-81
2022/12/20 03:48:20;;;;;;;2.47;1.50;;;13.80;99.90;;;;;;4968550;28;20048;-83
2022/12/20 03:50:46;;;;;;;2.60;1.45;;;13.80;99.90;;;;;;4981886;28;20223;-81
2022/12/20 03:53:12;;;;;;;2.13;1.60;;;13.80;99.90;;;;;;5004842;28;20112;-81
2022/12/20 03:55:38;;;;;;;2.17;1.50;;;13.80;99.90;;;;;;4976432;28;20022;-82
2022/12/20 03:58:03;;;;;;;1.60;1.30;;;13.80;99.90;;;;;;4968512;28;20113;-81
2022/12/20 04:00:29;;;;;;;1.80;1.30;;;13.80;99.90;;;;;;4957365;28;20033;-82
2022/12/20 04:02:55;;;;;;;2.10;1.40;;;13.80;99.90;;;;;;5005744;28;20148;-83
2022/12/20 04:05:21;;;;;;;2.30;1.35;;;13.80;99.90;;;;;;4984042;28;20089;-81
2022/12/20 04:07:46;;;;;;;2.37;1.40;;;13.70;99.90;;;;;;4982322;28;20353;-82
2022/12/20 04:10:12;;;;;;;1.92;1.35;;;13.70;99.90;;;;;;4973452;28;20041;-81
2022/12/20 04:12:38;;;;;;;2.35;1.52;;;13.70;99.90;;;;;;4987419;28;20526;-81
2022/12/20 04:15:04;;;;;;;1.93;1.37;;;13.60;99.90;;;;;;4961505;28;20758;-81
2022/12/20 04:17:30;;;;;;;2.78;1.52;;;13.60;99.90;;;;;;4988687;28;20639;-80
2022/12/20 04:19:56;;;;;;;2.25;1.35;;;13.60;99.90;;;;;;4963642;28;20012;-81
2022/12/20 04:22:22;;;;;;;1.80;1.23;;;13.60;99.90;;;;;;4986655;28;20021;-82
2022/12/20 04:24:48;;;;;;;2.67;1.63;;;13.60;99.90;;;;;;4977330;28;20033;-81
2022/12/20 04:27:13;;;;;;;2.60;1.20;;;13.60;99.90;;;;;;4995006;28;20022;-82
2022/12/20 04:29:39;;;;;;;2.50;1.40;;;13.60;99.90;;;;;;4981458;28;20239;-82
2022/12/20 04:32:05;;;;;;;1.83;1.40;;;13.60;99.90;;;;;;4979493;28;20029;-81
2022/12/20 04:34:31;;;;;;;2.23;1.53;;;13.60;99.90;;;;;;4977228;28;20295;-81
2022/12/20 04:36:56;;;;;;;3.55;1.33;;;13.60;99.90;;;;;;4991409;28;20025;-81
2022/12/20 04:39:22;;;;;;;1.87;1.20;;;13.60;99.90;;;;;;5000028;28;20030;-82
2022/12/20 04:41:48;;;;;;;2.20;1.30;;;13.70;99.90;;;;;;4984171;28;20205;-80
2022/12/20 04:44:13;;;;;;;1.85;1.20;;;13.70;99.90;;;;;;4978583;28;20045;-81
2022/12/20 04:46:39;;;;;;;2.40;1.30;;;13.60;99.90;;;;;;4958772;28;26237;-80
2022/12/20 04:49:05;;;;;;;2.57;1.50;;;13.70;99.90;;;;;;4972107;28;20033;-81
2022/12/20 04:51:30;;;;;;;1.73;1.37;;;13.60;99.90;;;;;;4964058;28;20040;-80
2022/12/20 04:53:56;;;;;;;1.92;1.35;;;13.60;99.90;;;;;;4978805;28;20014;-81
2022/12/20 04:56:27;;;;;;;2.03;1.10;;;13.60;99.90;;;;;;4973318;28;20493;-81
2022/12/20 04:58:56;;;;;;;2.00;1.30;;;13.60;99.90;;;;;;4998191;28;20511;-81
2022/12/20 05:01:22;;;;;;;3.47;1.20;;;13.60;99.90;;;;;;4948793;28;20121;-82
2022/12/20 05:03:48;;;;;;;2.88;1.33;;;13.60;99.90;;;;;;4972800;28;20231;-82
2022/12/20 05:06:14;;;;;;;3.00;1.60;;;13.60;99.90;;;;;;4994262;28;20111;-81
2022/12/20 05:08:41;;;;;;;2.33;1.30;;;13.60;99.90;;;;;;4976232;28;20038;-82
2022/12/20 05:11:07;;;;;;;1.85;1.30;;;13.70;99.90;;;;;;4992253;28;20108;-80
2022/12/20 05:13:33;;;;;;;1.80;1.30;;;13.70;99.90;;;;;;4963767;28;20359;-82
2022/12/20 05:15:59;;;;;;;1.77;1.20;;;13.70;99.90;;;;;;4977596;28;20384;-83
2022/12/20 05:18:26;;;;;;;2.58;1.30;;;13.70;99.90;;;;;;4955367;28;20087;-82
2022/12/20 05:26:39;;;;;;;2.97;1.70;;;13.70;99.90;;;;;;4928427;28;20724;-81
2022/12/20 05:29:05;;;;;;;1.80;1.40;;;13.80;99.90;;;;;;4984541;28;20045;-82
2022/12/20 05:31:31;;;;;;;2.00;1.20;;;13.80;99.90;;;;;;4971553;28;20541;-80
2022/12/20 05:33:57;;;;;;;2.45;1.17;;;13.70;99.90;;;;;;4943063;28;20022;-81
2022/12/20 05:36:23;;;;;;;2.40;1.20;;;13.70;99.90;;;;;;4987919;28;20105;-82
2022/12/20 05:38:49;;;;;;;2.53;1.30;;;13.70;99.90;;;;;;4975554;28;20239;-81
2022/12/20 05:41:14;;;;;;;1.60;1.27;;;13.80;99.90;;;;;;4987516;28;20061;-81
2022/12/20 05:43:40;;;;;;;2.40;1.20;;;13.70;99.90;;;;;;4959464;28;20168;-81
2022/12/20 05:46:06;;;;;;;2.65;1.25;;;13.80;99.90;;;;;;4958186;28;20123;-82
2022/12/20 05:48:32;;;;;;;1.63;1.17;;;13.70;99.90;;;;;;4921585;28;20313;-80
2022/12/20 05:50:58;;;;;;;2.35;1.10;;;13.70;99.90;;;;;;4960789;28;21921;-82
2022/12/20 05:53:25;;;;;;;2.60;1.27;;;13.70;99.90;;;;;;4972028;28;20700;-82
2022/12/20 05:55:52;;;;;;;2.53;1.23;;;13.70;99.90;;;;;;4977511;28;20045;-80
2022/12/20 05:58:19;;;;;;;1.92;1.30;;;13.70;99.90;;;;;;4945079;28;20628;-82
2022/12/20 06:00:46;;;;;;;1.87;1.30;;;13.70;99.90;;;;;;4961221;28;20400;-81
2022/12/20 06:03:14;;;;;;;2.45;1.30;;;13.70;99.90;;;;;;4950766;28;20279;-80
2022/12/20 06:05:40;;;;;;;1.88;1.20;;;13.70;99.90;;;;;;4964484;28;20128;-81
2022/12/20 06:08:06;;;;;;;1.98;1.25;;;13.70;99.90;;;;;;4981554;28;20030;-80
2022/12/20 06:10:36;;;;;;;2.15;1.20;;;13.70;99.90;;;;;;4963709;28;20326;-82
2022/12/20 06:13:03;;;;;;;1.70;1.30;;;13.70;99.90;;;;;;4968076;28;20064;-81
2022/12/20 06:15:30;;;;;;;2.22;1.17;;;13.70;99.90;;;;;;4991049;28;20207;-82
2022/12/20 06:17:56;;;;;;;2.80;1.40;;;13.70;99.90;;;;;;4957987;28;20427;-80
2022/12/20 06:20:22;;;;;;;1.60;1.15;;;13.70;99.90;;;;;;4971276;28;20060;-80
2022/12/20 06:22:48;;;;;;;1.70;1.23;;;13.70;99.90;;;;;;4955371;28;20025;-81
2022/12/20 06:25:14;;;;;;;3.40;1.40;;;13.70;99.90;;;;;;4968967;28;20545;-81
2022/12/20 06:27:41;;;;;;;1.80;1.02;;;13.70;99.90;;;;;;4976979;28;20099;-81
2022/12/20 06:30:08;;;;;;;1.95;1.00;;;13.70;99.90;;;;;;4974926;28;20280;-81
2022/12/20 06:32:34;;;;;;;1.80;1.10;;;13.70;99.90;;;;;;5003398;28;20117;-81
2022/12/20 06:35:00;;;;;;;1.90;1.20;;;13.70;99.90;;;;;;4959631;28;20461;-80
2022/12/20 06:37:25;;;;;;;1.70;1.05;;;13.70;99.90;;;;;;4990632;28;20464;-81
2022/12/20 06:39:51;;;;;;;1.20;0.90;;;13.70;99.90;;;;;;4961312;28;20071;-80
2022/12/20 06:42:17;;;;;;;1.40;0.98;;;13.70;99.90;;;;;;4976269;28;20026;-81
2022/12/20 06:44:43;;;;;;;2.33;1.10;;;13.70;99.90;;;;;;4929574;28;20026;-81
2022/12/20 06:47:09;;;;;;;1.80;1.10;;;13.70;99.90;;;;;;5000900;28;20044;-80
2022/12/20 06:49:34;;;;;;;1.40;1.10;;;13.80;99.90;;;;;;4961527;28;20079;-82
2022/12/20 06:52:00;;;;;;;1.20;1.03;;;13.80;99.90;;;;;;4973482;28;20026;-81
2022/12/20 06:54:26;;;;;;;1.67;1.00;;;13.80;99.90;;;;;;4987977;28;20033;-80
2022/12/20 06:56:51;;;;;;;1.80;1.15;;;13.80;99.90;;;;;;4965609;28;20228;-82
2022/12/20 06:59:17;;;;;;;1.30;1.00;;;13.90;99.90;;;;;;5003570;28;20104;-82
2022/12/20 07:01:43;;;;;;;1.77;1.20;;;13.90;99.90;;;;;;4975082;28;20021;-80
2022/12/20 07:04:09;;;;;;;2.60;1.20;;;13.90;99.90;;;;;;4992405;28;20128;-82
2022/12/20 07:06:35;;;;;;;2.27;1.23;;;13.90;99.90;;;;;;4930408;28;20042;-83
2022/12/20 07:09:01;;;;;;;2.20;1.40;;;13.90;99.90;;;;;;5008795;28;20029;-83
2022/12/20 07:11:27;;;;;;;1.92;1.30;;;14.00;99.90;;;;;;4974433;28;20036;-82
2022/12/20 07:13:56;;;;;;;2.13;1.10;;;14.00;99.90;;;;;;4968900;28;21570;-80
2022/12/20 07:16:23;;;;;;;3.17;1.15;;;14.00;99.90;;;;;;4987492;28;20020;-80
2022/12/20 07:18:50;;;;;;;2.55;1.20;;;14.00;99.90;;;;;;4978339;28;20025;-80
2022/12/20 07:21:17;;;;;;;2.78;1.25;;;14.00;99.90;;;;;;4962126;28;20044;-83
2022/12/20 07:23:43;;;;;;;1.88;1.15;;;14.00;99.90;;;;;;4957449;28;20337;-80
2022/12/20 07:26:10;;;;;;;2.93;1.20;;;13.90;99.90;;;;;;4974609;28;20470;-82
2022/12/20 07:28:36;;;;;;;2.13;1.20;;;13.90;99.90;;;;;;4986889;28;20080;-80
2022/12/20 07:31:02;;;;;;;1.27;1.10;;;13.80;99.90;;;;;;4981833;28;20474;-80
2022/12/20 07:33:29;;;;;;;1.63;1.03;;;13.80;99.90;;;;;;4981598;28;20443;-81
2022/12/20 07:36:06;;;;;;;2.47;1.20;;;13.70;99.90;;;;;;4971409;28;20628;-82
2022/12/20 07:38:32;;;;;;;2.58;1.30;;;13.70;99.90;;;;;;4954768;28;20403;-82
2022/12/20 07:40:58;;;;;;;3.15;1.23;;;13.60;99.90;;;;;;4999101;28;20037;-81
2022/12/20 07:43:24;;;;;;;2.63;1.20;;;13.50;99.90;;;;;;4973733;28;20028;-82
2022/12/20 07:45:54;;;;;;;1.55;1.08;;;13.50;99.90;;;;;;4961458;28;20061;-81
2022/12/20 07:48:20;;;;;;;2.40;0.98;;;13.40;99.90;;;;;;4990860;28;20471;-81
2022/12/20 07:50:46;;;;;;;2.50;1.20;;;13.40;99.90;;;;;;4968224;28;20037;-82
2022/12/20 07:53:13;;;;;;;1.65;1.05;;;13.30;99.90;;;;;;4975620;28;20616;-83
2022/12/20 07:55:40;;;;;;;2.55;1.40;;;13.30;99.90;;;;;;4939565;28;20444;-84
2022/12/20 07:58:09;;;;;;;2.67;1.20;;;13.30;99.90;;;;;;4981316;28;20006;-83
2022/12/20 08:00:36;;;;;;;2.63;1.10;;;13.20;99.90;;;;;;4963267;28;20184;-83
2022/12/20 08:03:14;;;;;;;3.47;1.25;;;13.20;99.90;;;;;;5002265;28;20041;-83
2022/12/20 08:05:45;;;;;;;2.65;1.40;;;13.10;99.90;;;;;;4968595;28;20733;-82
2022/12/20 08:08:11;;;;;;;2.03;1.27;;;13.10;99.90;;;;;;5010205;28;20022;-85
2022/12/20 08:10:38;;;;;;;2.47;1.20;;;13.10;99.90;;;;;;4944210;28;20041;-86
2022/12/20 08:13:05;;;;;;;3.20;1.20;;;13.00;99.90;;;;;;4976953;28;20037;-85
2022/12/20 08:15:33;;;;;;;1.50;1.20;;;12.90;99.90;;;;;;4961979;28;20049;-86
2022/12/20 08:17:59;;;;;;;2.22;1.20;;;12.90;99.90;;;;;;4968327;28;20026;-86
2022/12/20 08:20:25;;;;;;;1.70;1.10;;;12.90;99.90;;;;;;4986641;28;20136;-85
2022/12/20 08:22:51;;;;;;;2.17;1.20;;;12.90;99.90;;;;;;4967875;28;20033;-85
2022/12/20 08:25:17;;;;;;;2.33;1.10;;;12.90;99.90;;;;;;4977103;28;20106;-86
2022/12/20 08:27:43;;;;;;;2.65;1.40;;;12.90;99.90;;;;;;4973985;28;20279;-86
2022/12/20 08:30:10;;;;;;;2.58;1.00;;;12.90;99.90;;;;;;4974820;28;20056;-86
2022/12/20 08:32:36;;;;;;;2.27;1.17;;;12.90;99.90;;;;;;4990990;28;20025;-87
2022/12/20 08:35:03;;;;;;;3.65;1.30;;;12.90;99.90;;;;;;4987796;28;20038;-86
2022/12/20 08:37:28;;;;;;;2.10;1.20;;;12.90;99.90;;;;;;4965921;28;20033;-87
2022/12/20 08:39:54;;;;;;;2.67;1.30;;;12.80;99.90;;;;;;4975094;28;21390;-86
2022/12/20 08:42:20;;;;;;;1.40;1.10;;;12.80;99.90;;;;;;4962769;28;20852;-85
2022/12/20 08:44:46;;;;;;;2.42;1.23;;;12.80;99.90;;;;;;4973705;28;20132;-86
2022/12/20 08:47:11;;;;;;;1.90;1.20;;;12.90;99.90;;;;;;4972285;28;20065;-85
2022/12/20 08:49:37;;;;;;;2.22;1.20;;;12.90;99.90;;;;;;4958159;28;20231;-85
2022/12/20 08:52:03;;;;;;;1.77;1.30;;;12.90;99.90;;;;;;4978132;28;20028;-85
2022/12/20 08:54:29;;;;;;;1.70;1.20;;;12.90;99.90;;;;;;4977070;28;20033;-85
2022/12/20 08:56:55;;;;;;;1.40;1.10;;;12.80;99.90;;;;;;4986545;28;20022;-85
2022/12/20 08:59:20;;;;;;;2.13;1.20;;;12.80;99.90;;;;;;4958335;28;20014;-85
2022/12/20 09:01:46;;;;;;;1.90;1.20;;;12.90;99.90;;;;;;4979233;28;20446;-86
2022/12/20 09:04:14;;;;;;;1.92;1.35;;;12.90;99.90;;;;;;4989194;28;20025;-85
2022/12/20 09:06:39;;;;;;;2.30;1.53;;;12.90;99.90;;;;;;4959598;28;20081;-85
2022/12/20 09:09:06;;;;;;;3.28;1.50;;;12.90;99.90;;;;;;4982563;28;20108;-84
2022/12/20 09:11:32;;;;;;;3.42;1.55;;;12.90;99.90;;;;;;4985848;28;20075;-86
2022/12/20 09:13:58;;;;;;;3.07;1.30;;;12.90;99.90;;;;;;4958502;28;20031;-86
2022/12/20 09:16:27;;;;;;;2.85;1.40;;;13.00;99.90;;;;;;4973050;28;20024;-85
2022/12/20 09:18:55;;;;;;;2.13;1.15;;;13.00;99.90;;;;;;4973363;28;20148;-84
2022/12/20 09:21:22;;;;;;;1.55;1.10;;;13.00;99.90;;;;;;4975320;28;20152;-85
2022/12/20 09:23:52;;;;;;;2.42;1.60;;;13.00;99.90;;;;;;4979712;28;20123;-88
2022/12/20 09:26:20;;;;;;;2.10;1.37;;;13.00;99.90;;;;;;4980516;28;20509;-85
2022/12/20 09:28:46;;;;;;;2.13;1.42;;;13.10;99.90;;;;;;4970799;28;20715;-84
2022/12/20 09:31:14;;;;;;;2.40;1.10;;;13.10;99.90;;;;;;4947236;28;20025;-85
2022/12/20 09:33:40;;;;;;;3.17;1.38;;;13.10;99.90;;;;;;5002718;28;20294;-85
2022/12/20 09:36:09;;;;;;;2.17;1.50;;;13.10;99.90;;;;;;4964655;28;20018;-85
2022/12/20 09:38:35;;;;;;;2.78;1.20;;;13.00;99.90;;;;;;4990599;28;20021;-86
2022/12/20 09:41:04;;;;;;;1.33;1.00;;;13.00;99.90;;;;;;4964899;28;20021;-85
2022/12/20 09:43:31;;;;;;;2.47;1.40;;;13.00;99.90;;;;;;4987364;28;20034;-85
2022/12/20 09:45:59;;;;;;;1.98;1.40;;;13.00;99.90;;;;;;4968257;28;20025;-85
2022/12/20 09:48:34;;;;;;;4.07;1.47;;;13.00;99.90;;;;;;4959732;28;20025;-85
2022/12/20 09:51:09;;;;;;;2.08;1.30;;;13.00;99.90;;;;;;4960647;28;20385;-85
2022/12/20 09:53:53;;;;;;;3.55;1.50;;;13.00;99.90;;;;;;4984994;28;20546;-84
2022/12/20 09:56:36;;;;;;;2.03;1.38;;;13.00;99.90;;;;;;4950971;28;20022;-85
2022/12/20 09:59:05;;;;;;;2.58;1.50;;;13.00;99.90;;;;;;4975514;28;20021;-85
2022/12/20 10:01:34;;;;;;;2.47;1.30;;;13.00;99.90;;;;;;4951784;28;20091;-86
2022/12/20 10:04:04;;;;;;;2.10;1.20;;;13.00;99.90;;;;;;4986179;28;20044;-85
2022/12/20 10:06:47;;;;;;;2.08;1.20;;;13.00;99.90;;;;;;4961137;28;20180;-85
2022/12/20 10:09:41;;;;;;;2.55;1.20;;;13.00;99.90;;;;;;4982935;28;20121;-87
2022/12/20 10:12:10;;;;;;;2.05;1.17;;;13.00;99.90;;;;;;4969360;28;20094;-86
2022/12/20 10:15:01;;;;;;;1.70;1.10;;;13.00;99.90;;;;;;4993502;28;20045;-85
2022/12/20 10:18:10;;;;;;;1.95;1.33;;;13.00;99.90;;;;;;4966459;28;20123;-85
2022/12/20 10:20:50;;;;;;;2.88;1.42;;;13.00;99.90;;;;;;4987714;28;20025;-86
2022/12/20 10:23:23;;;;;;;3.28;1.50;;;13.00;99.90;;;;;;4974202;28;20285;-85
2022/12/20 10:25:52;;;;;;;2.10;1.20;;;13.00;99.90;;;;;;4976155;28;20042;-86
2022/12/20 10:28:27;;;;;;;1.57;1.13;;;13.00;99.90;;;;;;4968472;28;20041;-86
2022/12/20 10:30:53;;;;;;;1.70;1.30;;;13.00;99.90;;;;;;5000187;28;20072;-86
2022/12/20 10:33:21;;;;;;;1.55;1.20;;;13.00;99.90;;;;;;4945651;28;20030;-86
2022/12/20 10:35:49;;;;;;;2.13;1.20;;;13.00;99.90;;;;;;4994735;28;20041;-86
2022/12/20 10:38:17;;;;;;;1.80;1.30;;;13.00;99.90;;;;;;4979467;28;20353;-86
2022/12/20 10:40:46;;;;;;;2.00;1.27;;;13.00;99.90;;;;;;4974220;28;20079;-85
2022/12/20 10:43:18;;;;;;;2.28;1.20;;;13.00;99.90;;;;;;4972019;28;20037;-85
2022/12/20 10:46:13;;;;;;;2.53;1.23;;;13.00;99.90;;;;;;4994381;28;20303;-86
2022/12/20 10:48:41;;;;;;;2.05;1.30;;;13.00;99.90;;;;;;4937262;28;20748;-85
2022/12/20 10:51:13;;;;;;;1.70;1.20;;;13.00;99.90;;;;;;4989719;28;20387;-86
2022/12/20 10:54:00;;;;;;;2.97;1.48;;;13.00;99.90;;;;;;4989653;28;20283;-86
2022/12/20 10:56:32;;;;;;;1.90;1.30;;;12.90;99.90;;;;;;4977572;28;20014;-85
2022/12/20 10:59:02;;;;;;;2.28;1.20;;;13.00;99.90;;;;;;4985228;28;20021;-84
2022/12/20 11:01:32;;;;;;;1.88;1.10;;;13.00;99.90;;;;;;4976655;28;20093;-85
2022/12/20 11:04:04;;;;;;;1.80;1.43;;;13.00;99.90;;;;;;4954226;28;20738;-86
2022/12/20 11:06:42;;;;;;;2.03;1.45;;;13.00;99.90;;;;;;4969761;28;20883;-86
2022/12/20 11:09:22;;;;;;;3.45;1.30;;;13.00;99.90;;;;;;4978090;28;20713;-86
2022/12/20 11:12:12;;;;;;;1.88;1.40;;;13.00;99.90;;;;;;5003977;28;20056;-86
2022/12/20 11:14:40;;;;;;;2.50;1.52;;;13.00;99.90;;;;;;4977537;28;20022;-86
2022/12/20 11:17:37;;;;;;;3.90;1.60;;;13.00;99.90;;;;;;4973583;28;20569;-86
2022/12/20 11:20:10;;;;;;;3.05;1.40;;;13.00;99.90;;;;;;4962242;28;20812;-86
2022/12/20 11:22:55;;;;;;;2.72;1.60;;;13.00;99.90;;;;;;4972028;28;20017;-86
2022/12/20 11:25:43;;;;;;;2.10;1.50;;;13.00;99.90;;;;;;4977046;28;20517;-86
2022/12/20 11:28:30;;;;;;;2.40;1.45;;;13.10;99.90;;;;;;4979323;28;20045;-85
2022/12/20 11:31:29;;;;;;;2.73;1.50;;;13.00;99.90;;;;;;4978909;28;20025;-86
2022/12/20 11:34:02;;;;;;;3.08;1.65;;;13.00;99.90;;;;;;4964929;28;20033;-86
2022/12/20 11:36:54;;;;;;;2.70;1.60;;;13.00;99.90;;;;;;4976004;28;20018;-86
2022/12/20 11:39:49;;;;;;;3.17;1.65;;;13.00;99.90;;;;;;4954217;28;20263;-87
2022/12/20 11:42:45;;;;;;;1.73;1.17;;;13.00;99.90;;;;;;4990128;28;20091;-87
2022/12/20 11:45:25;;;;;;;2.07;1.43;;;13.10;99.90;;;;;;4994153;28;20051;-86
2022/12/20 11:48:16;;;;;;;1.88;1.40;;;13.00;99.90;;;;;;4976531;28;20419;-86
2022/12/20 11:51:29;;;;;;;1.70;1.40;;;13.00;99.90;;;;;;4979102;28;20374;-86
2022/12/20 11:54:03;;;;;;;3.03;1.40;;;13.00;99.90;;;;;;4974980;28;20440;-87
2022/12/20 11:56:34;;;;;;;2.05;1.35;;;13.00;99.90;;;;;;4971916;28;20013;-85
2022/12/20 11:59:06;;;;;;;3.37;1.70;;;13.00;99.90;;;;;;4980462;28;20413;-87
2022/12/20 12:01:45;;;;;;;2.90;1.50;;;13.00;99.90;;;;;;4993698;28;20550;-86
2022/12/20 12:04:21;;;;;;;2.08;1.48;;;13.00;99.90;;;;;;4973534;28;20045;-85
2022/12/20 12:07:03;;;;;;;2.35;1.55;;;13.00;99.90;;;;;;4972920;28;20522;-85
2022/12/20 12:09:37;;;;;;;2.10;1.50;;;13.00;99.90;;;;;;4996736;28;20069;-86
2022/12/20 12:12:25;;;;;;;2.50;1.20;;;13.00;99.90;;;;;;4993247;28;20081;-86
2022/12/20 12:15:36;;;;;;;3.22;1.45;;;13.00;99.90;;;;;;4981945;28;20108;-86
2022/12/20 12:18:18;;;;;;;2.67;1.30;;;13.00;99.90;;;;;;4991452;28;20038;-87
2022/12/20 12:20:58;;;;;;;2.20;1.40;;;13.00;99.90;;;;;;4966613;28;20021;-87
2022/12/20 12:23:39;;;;;;;2.35;1.40;;;13.00;99.90;;;;;;4987886;28;20025;-87
2022/12/20 12:26:12;;;;;;;2.10;1.40;;;12.90;99.90;;;;;;4990869;28;20140;-87
2022/12/20 12:28:38;;;;;;;3.05;1.30;;;12.90;99.90;;;;;;4999014;28;20026;-88
2022/12/20 12:31:15;;;;;;;2.20;1.50;;;12.90;99.90;;;;;;4978552;28;20025;-89
2022/12/20 12:33:49;;;;;;;3.53;1.60;;;12.90;99.90;;;;;;4996178;28;20030;-86
2022/12/20 12:36:41;;;;;;;2.63;1.50;;;12.90;99.90;;;;;;4960185;28;20025;-87
2022/12/20 12:39:41;;;;;;;3.75;1.95;;;12.90;99.90;;;;;;4973264;28;20536;-85
2022/12/20 12:42:13;;;;;;;4.50;1.90;;;12.90;99.90;;;;;;4958152;28;20362;-84
2022/12/20 12:44:58;;;;;;;2.80;1.83;;;12.90;99.90;;;;;;4990006;28;20338;-86
2022/12/20 12:47:37;;;;;;;2.33;1.58;;;12.90;99.90;;;;;;5004862;28;20021;-85
2022/12/20 12:50:08;;;;;;;3.43;1.73;;;12.90;99.90;;;;;;4991022;28;20030;-86
2022/12/20 12:52:48;;;;;;;2.60;1.55;;;12.90;99.90;;;;;;4933488;28;20021;-86
2022/12/20 12:55:38;;;;;;;2.17;1.50;;;12.80;99.90;;;;;;4982478;28;20033;-85
2022/12/20 12:58:23;;;;;;;2.67;1.50;;;12.80;99.90;;;;;;4999531;28;20037;-85
2022/12/20 13:00:56;;;;;;;2.58;1.70;;;12.80;99.90;;;;;;4974309;28;20235;-85
2022/12/20 13:03:50;;;;;;;3.50;1.70;;;12.80;99.90;;;;;;5006019;28;20104;-85
2022/12/20 13:06:22;;;;;;;3.20;1.70;;;12.80;99.90;;;;;;4962667;28;20041;-85
2022/12/20 13:08:55;;;;;;;3.33;1.70;;;12.80;99.90;;;;;;4940991;28;20084;-85
2022/12/20 13:11:38;;;;;;;2.25;1.40;;;12.80;99.90;;;;;;5008305;28;20835;-85
2022/12/20 13:14:16;;;;;;;2.75;1.45;;;12.80;99.90;;;;;;4997886;28;20030;-85